Terminal Aerodrome Forecast
Issued by NWS

Home | Current Version | Previous Version | Text Only | Print | Product List | Glossary On
Versions: 1 2 3 4 5 6 7 8 9 10 11 12 13 14 15 16
000
FTUS43 KDTX 301400 AAB
TAFMBS
TAF AMD
KMBS 301407Z 3014/3112 18010KT P6SM SCT050 BKN100
      TEMPO 3014/3017 2SM -TSRA BKN050CB
     FM301700 20012G20KT 5SM -SHRA OVC040
      TEMPO 3018/3022 5SM -TSRA OVC025CB
     FM310100 21012KT 5SM SHRA OVC022
     FM310700 23007KT 4SM BR OVC012=

USA.gov is the U.S. government's official web portal to all federal, state and local government web resources and services.